sensor_id;sensor_type;location;lat;lon;timestamp;temperature;humidity
32107;DHT22;18622;51.998;10.440;2023-07-31T03:30:38;16.90;99.90
32107;DHT22;18622;51.998;10.440;2023-07-31T03:33:06;16.90;99.90
32107;DHT22;18622;51.998;10.440;2023-07-31T03:35:33;16.80;99.90
32107;DHT22;18622;51.998;10.440;2023-07-31T03:38:01;16.80;99.90
32107;DHT22;18622;51.998;10.440;2023-07-31T03:40:29;16.70;99.90
32107;DHT22;18622;51.998;10.440;2023-07-31T03:42:57;16.60;99.90
32107;DHT22;18622;51.998;10.440;2023-07-31T03:45:25;16.60;99.90
32107;DHT22;18622;51.998;10.440;2023-07-31T03:47:52;16.50;99.90
32107;DHT22;18622;51.998;10.440;2023-07-31T03:50:21;16.50;99.90
32107;DHT22;18622;51.998;10.440;2023-07-31T03:52:49;16.50;99.90
32107;DHT22;18622;51.998;10.440;2023-07-31T03:55:17;16.40;99.90
32107;DHT22;18622;51.998;10.440;2023-07-31T03:57:44;16.40;99.90
32107;DHT22;18622;51.998;10.440;2023-07-31T04:00:13;16.40;99.90
32107;DHT22;18622;51.998;10.440;2023-07-31T04:02:40;16.40;99.90
32107;DHT22;18622;51.998;10.440;2023-07-31T04:05:08;16.50;99.90
32107;DHT22;18622;51.998;10.440;2023-07-31T04:07:37;16.50;99.90
32107;DHT22;18622;51.998;10.440;2023-07-31T04:10:05;16.50;99.90
32107;DHT22;18622;51.998;10.440;2023-07-31T04:12:33;16.50;99.90
32107;DHT22;18622;51.998;10.440;2023-07-31T04:15:00;16.50;99.90
32107;DHT22;18622;51.998;10.440;2023-07-31T04:17:28;16.40;99.90
32107;DHT22;18622;51.998;10.440;2023-07-31T04:19:56;16.40;99.90
32107;DHT22;18622;51.998;10.440;2023-07-31T04:22:24;16.50;99.90
32107;DHT22;18622;51.998;10.440;2023-07-31T04:27:21;16.40;99.90
32107;DHT22;18622;51.998;10.440;2023-07-31T04:29:48;16.40;99.90
32107;DHT22;18622;51.998;10.440;2023-07-31T04:32:16;16.40;99.90
32107;DHT22;18622;51.998;10.440;2023-07-31T04:34:44;16.40;99.90
32107;DHT22;18622;51.998;10.440;2023-07-31T04:37:12;16.40;99.90
32107;DHT22;18622;51.998;10.440;2023-07-31T04:39:40;16.40;99.90
32107;DHT22;18622;51.998;10.440;2023-07-31T04:42:08;16.40;99.90
32107;DHT22;18622;51.998;10.440;2023-07-31T04:44:35;16.40;99.90
32107;DHT22;18622;51.998;10.440;2023-07-31T04:47:03;16.50;99.90
32107;DHT22;18622;51.998;10.440;2023-07-31T04:49:32;16.50;99.90
32107;DHT22;18622;51.998;10.440;2023-07-31T04:51:59;16.50;99.90
32107;DHT22;18622;51.998;10.440;2023-07-31T04:54:27;16.60;99.90
32107;DHT22;18622;51.998;10.440;2023-07-31T04:56:55;16.60;99.90
32107;DHT22;18622;51.998;10.440;2023-07-31T04:59:23;16.70;99.90
32107;DHT22;18622;51.998;10.440;2023-07-31T05:01:51;16.70;99.90
32107;DHT22;18622;51.998;10.440;2023-07-31T05:04:18;16.70;99.90
32107;DHT22;18622;51.998;10.440;2023-07-31T05:06:46;16.80;99.90
32107;DHT22;18622;51.998;10.440;2023-07-31T05:09:14;16.80;99.90
32107;DHT22;18622;51.998;10.440;2023-07-31T05:11:42;16.80;99.90
32107;DHT22;18622;51.998;10.440;2023-07-31T05:14:10;16.80;99.90
32107;DHT22;18622;51.998;10.440;2023-07-31T05:16:37;16.80;99.90
32107;DHT22;18622;51.998;10.440;2023-07-31T05:19:05;16.80;99.90
32107;DHT22;18622;51.998;10.440;2023-07-31T05:21:33;16.80;99.90
32107;DHT22;18622;51.998;10.440;2023-07-31T05:24:01;16.80;99.90
32107;DHT22;18622;51.998;10.440;2023-07-31T05:26:29;16.80;99.90
32107;DHT22;18622;51.998;10.440;2023-07-31T05:28:56;16.90;99.90
32107;DHT22;18622;51.998;10.440;2023-07-31T05:31:25;17.00;99.90
32107;DHT22;18622;51.998;10.440;2023-07-31T05:33:52;17.10;99.90
32107;DHT22;18622;51.998;10.440;2023-07-31T05:36:20;17.20;99.90
32107;DHT22;18622;51.998;10.440;2023-07-31T05:38:48;17.20;99.90
32107;DHT22;18622;51.998;10.440;2023-07-31T05:41:16;17.30;99.90
32107;DHT22;18622;51.998;10.440;2023-07-31T05:43:44;17.30;99.90
32107;DHT22;18622;51.998;10.440;2023-07-31T05:46:12;17.40;99.90
32107;DHT22;18622;51.998;10.440;2023-07-31T05:48:40;17.40;99.90
32107;DHT22;18622;51.998;10.440;2023-07-31T05:51:08;17.50;99.90
32107;DHT22;18622;51.998;10.440;2023-07-31T05:53:36;17.50;99.90
32107;DHT22;18622;51.998;10.440;2023-07-31T05:56:05;17.50;99.90
32107;DHT22;18622;51.998;10.440;2023-07-31T05:58:33;17.60;99.90
32107;DHT22;18622;51.998;10.440;2023-07-31T06:01:01;17.70;99.90
32107;DHT22;18622;51.998;10.440;2023-07-31T06:03:29;17.80;99.90
32107;DHT22;18622;51.998;10.440;2023-07-31T06:05:57;17.80;99.90
32107;DHT22;18622;51.998;10.440;2023-07-31T06:08:25;17.80;99.90
32107;DHT22;18622;51.998;10.440;2023-07-31T06:10:52;17.80;99.90
32107;DHT22;18622;51.998;10.440;2023-07-31T06:13:20;17.90;99.90
32107;DHT22;18622;51.998;10.440;2023-07-31T06:15:48;18.00;99.90
32107;DHT22;18622;51.998;10.440;2023-07-31T06:18:16;18.00;99.90
32107;DHT22;18622;51.998;10.440;2023-07-31T06:20:44;18.00;99.90
32107;DHT22;18622;51.998;10.440;2023-07-31T06:23:11;18.10;99.90
32107;DHT22;18622;51.998;10.440;2023-07-31T06:25:39;18.10;99.90
32107;DHT22;18622;51.998;10.440;2023-07-31T06:28:07;18.20;99.90
32107;DHT22;18622;51.998;10.440;2023-07-31T06:30:35;18.30;99.90
32107;DHT22;18622;51.998;10.440;2023-07-31T06:33:03;18.30;99.90
32107;DHT22;18622;51.998;10.440;2023-07-31T06:35:30;18.30;99.90
32107;DHT22;18622;51.998;10.440;2023-07-31T06:37:58;18.40;99.90
32107;DHT22;18622;51.998;10.440;2023-07-31T06:40:26;18.60;99.90
32107;DHT22;18622;51.998;10.440;2023-07-31T06:42:54;18.70;99.90
32107;DHT22;18622;51.998;10.440;2023-07-31T06:45:22;18.80;99.90
32107;DHT22;18622;51.998;10.440;2023-07-31T06:47:49;18.80;99.90
32107;DHT22;18622;51.998;10.440;2023-07-31T06:50:17;18.80;99.90
32107;DHT22;18622;51.998;10.440;2023-07-31T06:52:45;18.70;99.90
32107;DHT22;18622;51.998;10.440;2023-07-31T06:55:18;18.70;99.90
32107;DHT22;18622;51.998;10.440;2023-07-31T06:57:47;18.60;99.90
32107;DHT22;18622;51.998;10.440;2023-07-31T07:00:15;18.60;99.90
32107;DHT22;18622;51.998;10.440;2023-07-31T07:02:43;18.60;99.90
32107;DHT22;18622;51.998;10.440;2023-07-31T07:05:11;18.70;99.90
32107;DHT22;18622;51.998;10.440;2023-07-31T07:07:38;19.00;99.90
32107;DHT22;18622;51.998;10.440;2023-07-31T07:10:07;19.20;99.90
32107;DHT22;18622;51.998;10.440;2023-07-31T07:12:35;19.40;99.90
32107;DHT22;18622;51.998;10.440;2023-07-31T07:15:03;19.60;99.90
32107;DHT22;18622;51.998;10.440;2023-07-31T07:17:31;19.80;99.90
32107;DHT22;18622;51.998;10.440;2023-07-31T07:19:59;20.00;99.90
32107;DHT22;18622;51.998;10.440;2023-07-31T07:22:27;20.00;99.90
32107;DHT22;18622;51.998;10.440;2023-07-31T07:24:55;20.00;99.90
32107;DHT22;18622;51.998;10.440;2023-07-31T07:27:23;20.00;99.90
32107;DHT22;18622;51.998;10.440;2023-07-31T07:29:51;20.00;99.90
32107;DHT22;18622;51.998;10.440;2023-07-31T07:32:19;20.10;99.90
32107;DHT22;18622;51.998;10.440;2023-07-31T07:34:48;20.20;99.90
32107;DHT22;18622;51.998;10.440;2023-07-31T07:37:16;20.20;99.90
32107;DHT22;18622;51.998;10.440;2023-07-31T07:39:44;20.20;99.90
32107;DHT22;18622;51.998;10.440;2023-07-31T07:42:12;20.20;99.90
32107;DHT22;18622;51.998;10.440;2023-07-31T07:44:40;20.40;99.90
32107;DHT22;18622;51.998;10.440;2023-07-31T07:47:07;20.60;99.90
32107;DHT22;18622;51.998;10.440;2023-07-31T07:49:35;20.80;99.90
32107;DHT22;18622;51.998;10.440;2023-07-31T07:52:04;21.00;99.80
32107;DHT22;18622;51.998;10.440;2023-07-31T07:54:32;21.10;99.60
32107;DHT22;18622;51.998;10.440;2023-07-31T07:57:00;21.20;99.00
32107;DHT22;18622;51.998;10.440;2023-07-31T07:59:28;21.20;99.20
32107;DHT22;18622;51.998;10.440;2023-07-31T08:01:56;21.20;98.70
32107;DHT22;18622;51.998;10.440;2023-07-31T08:04:24;21.20;98.70
32107;DHT22;18622;51.998;10.440;2023-07-31T08:06:52;21.10;98.20
32107;DHT22;18622;51.998;10.440;2023-07-31T08:09:19;21.10;98.80
32107;DHT22;18622;51.998;10.440;2023-07-31T08:11:47;21.00;98.80
32107;DHT22;18622;51.998;10.440;2023-07-31T08:14:15;21.00;98.70
32107;DHT22;18622;51.998;10.440;2023-07-31T08:16:43;20.80;98.80
32107;DHT22;18622;51.998;10.440;2023-07-31T08:19:11;20.60;99.00
32107;DHT22;18622;51.998;10.440;2023-07-31T08:21:38;20.50;99.20
32107;DHT22;18622;51.998;10.440;2023-07-31T08:24:06;20.40;99.50
32107;DHT22;18622;51.998;10.440;2023-07-31T08:26:34;20.20;99.90
32107;DHT22;18622;51.998;10.440;2023-07-31T08:29:02;19.90;99.90
32107;DHT22;18622;51.998;10.440;2023-07-31T08:31:30;19.60;99.90
32107;DHT22;18622;51.998;10.440;2023-07-31T08:33:58;19.30;99.90
32107;DHT22;18622;51.998;10.440;2023-07-31T08:36:26;19.30;99.90
32107;DHT22;18622;51.998;10.440;2023-07-31T08:38:53;19.10;99.90
32107;DHT22;18622;51.998;10.440;2023-07-31T08:41:21;19.00;99.90
32107;DHT22;18622;51.998;10.440;2023-07-31T08:43:52;18.90;99.90
32107;DHT22;18622;51.998;10.440;2023-07-31T08:46:21;18.90;99.90
32107;DHT22;18622;51.998;10.440;2023-07-31T08:48:49;19.00;99.90
32107;DHT22;18622;51.998;10.440;2023-07-31T08:51:20;19.10;99.90
32107;DHT22;18622;51.998;10.440;2023-07-31T08:53:47;19.40;99.90
32107;DHT22;18622;51.998;10.440;2023-07-31T08:56:16;19.60;99.90
32107;DHT22;18622;51.998;10.440;2023-07-31T08:58:44;19.80;99.90
32107;DHT22;18622;51.998;10.440;2023-07-31T09:01:12;20.10;99.90
32107;DHT22;18622;51.998;10.440;2023-07-31T09:03:42;20.40;99.90
32107;DHT22;18622;51.998;10.440;2023-07-31T09:06:12;20.80;99.90
32107;DHT22;18622;51.998;10.440;2023-07-31T09:08:42;21.00;99.90
32107;DHT22;18622;51.998;10.440;2023-07-31T09:11:09;21.20;99.90
32107;DHT22;18622;51.998;10.440;2023-07-31T09:13:38;21.30;99.90
32107;DHT22;18622;51.998;10.440;2023-07-31T09:16:08;21.40;99.70
32107;DHT22;18622;51.998;10.440;2023-07-31T09:18:57;21.40;99.70
32107;DHT22;18622;51.998;10.440;2023-07-31T09:21:23;21.40;99.50
32107;DHT22;18622;51.998;10.440;2023-07-31T09:23:52;21.50;99.40
32107;DHT22;18622;51.998;10.440;2023-07-31T09:26:34;21.40;99.40
32107;DHT22;18622;51.998;10.440;2023-07-31T09:29:04;21.20;99.50
32107;DHT22;18622;51.998;10.440;2023-07-31T09:31:42;21.00;99.60
32107;DHT22;18622;51.998;10.440;2023-07-31T09:34:11;20.70;99.90
32107;DHT22;18622;51.998;10.440;2023-07-31T09:36:46;20.60;99.90
32107;DHT22;18622;51.998;10.440;2023-07-31T09:39:15;20.50;99.90
32107;DHT22;18622;51.998;10.440;2023-07-31T09:41:46;20.50;99.90
32107;DHT22;18622;51.998;10.440;2023-07-31T09:44:14;20.20;99.90
32107;DHT22;18622;51.998;10.440;2023-07-31T09:46:42;20.10;99.90
32107;DHT22;18622;51.998;10.440;2023-07-31T09:49:10;20.00;99.90
32107;DHT22;18622;51.998;10.440;2023-07-31T09:51:40;20.10;99.90
32107;DHT22;18622;51.998;10.440;2023-07-31T09:54:16;20.10;99.90
32107;DHT22;18622;51.998;10.440;2023-07-31T09:56:46;20.00;99.90
32107;DHT22;18622;51.998;10.440;2023-07-31T09:59:16;19.70;99.90
32107;DHT22;18622;51.998;10.440;2023-07-31T10:01:46;19.50;99.90
32107;DHT22;18622;51.998;10.440;2023-07-31T10:04:14;19.30;99.90
32107;DHT22;18622;51.998;10.440;2023-07-31T10:06:44;19.20;99.90
32107;DHT22;18622;51.998;10.440;2023-07-31T10:09:15;19.30;99.90
32107;DHT22;18622;51.998;10.440;2023-07-31T10:11:51;19.50;99.90
32107;DHT22;18622;51.998;10.440;2023-07-31T10:14:20;19.70;99.90
32107;DHT22;18622;51.998;10.440;2023-07-31T10:16:47;20.20;99.90
32107;DHT22;18622;51.998;10.440;2023-07-31T10:19:16;20.70;99.90
32107;DHT22;18622;51.998;10.440;2023-07-31T10:21:44;21.20;99.90
32107;DHT22;18622;51.998;10.440;2023-07-31T10:24:12;22.00;99.90
32107;DHT22;18622;51.998;10.440;2023-07-31T10:26:41;22.40;99.40
32107;DHT22;18622;51.998;10.440;2023-07-31T10:29:11;22.60;98.60
32107;DHT22;18622;51.998;10.440;2023-07-31T10:31:39;22.60;98.00
32107;DHT22;18622;51.998;10.440;2023-07-31T10:34:07;22.50;98.10
32107;DHT22;18622;51.998;10.440;2023-07-31T10:36:35;22.50;98.00
32107;DHT22;18622;51.998;10.440;2023-07-31T10:39:04;22.50;98.20
32107;DHT22;18622;51.998;10.440;2023-07-31T10:41:33;22.60;97.50
32107;DHT22;18622;51.998;10.440;2023-07-31T10:44:03;22.60;97.40
32107;DHT22;18622;51.998;10.440;2023-07-31T10:46:32;22.70;97.30
32107;DHT22;18622;51.998;10.440;2023-07-31T10:49:01;22.80;97.10
32107;DHT22;18622;51.998;10.440;2023-07-31T10:51:35;22.90;97.00
32107;DHT22;18622;51.998;10.440;2023-07-31T10:54:13;23.00;96.70
32107;DHT22;18622;51.998;10.440;2023-07-31T10:56:46;23.10;96.10
32107;DHT22;18622;51.998;10.440;2023-07-31T10:59:14;23.40;96.10
32107;DHT22;18622;51.998;10.440;2023-07-31T11:01:54;24.10;95.40
32107;DHT22;18622;51.998;10.440;2023-07-31T11:04:25;24.60;94.00
32107;DHT22;18622;51.998;10.440;2023-07-31T11:06:58;24.80;93.20
32107;DHT22;18622;51.998;10.440;2023-07-31T11:09:33;24.80;93.40
32107;DHT22;18622;51.998;10.440;2023-07-31T11:12:01;24.80;92.60
32107;DHT22;18622;51.998;10.440;2023-07-31T11:14:29;24.70;93.00
32107;DHT22;18622;51.998;10.440;2023-07-31T11:16:56;24.60;93.00
32107;DHT22;18622;51.998;10.440;2023-07-31T11:19:25;24.50;93.30
32107;DHT22;18622;51.998;10.440;2023-07-31T11:21:53;24.50;92.60
32107;DHT22;18622;51.998;10.440;2023-07-31T11:24:21;24.30;93.20
32107;DHT22;18622;51.998;10.440;2023-07-31T11:26:52;24.20;92.80
32107;DHT22;18622;51.998;10.440;2023-07-31T11:29:21;24.40;93.20
32107;DHT22;18622;51.998;10.440;2023-07-31T11:31:50;25.30;92.20
32107;DHT22;18622;51.998;10.440;2023-07-31T11:34:18;26.20;90.60
32107;DHT22;18622;51.998;10.440;2023-07-31T11:36:55;26.80;90.30
32107;DHT22;18622;51.998;10.440;2023-07-31T11:39:23;27.00;88.10
32107;DHT22;18622;51.998;10.440;2023-07-31T11:41:50;26.80;87.60
32107;DHT22;18622;51.998;10.440;2023-07-31T11:44:18;26.40;88.10
32107;DHT22;18622;51.998;10.440;2023-07-31T11:46:46;26.20;89.70
32107;DHT22;18622;51.998;10.440;2023-07-31T11:49:15;26.30;87.70
32107;DHT22;18622;51.998;10.440;2023-07-31T11:51:43;26.00;87.80
32107;DHT22;18622;51.998;10.440;2023-07-31T11:54:11;25.60;88.70
32107;DHT22;18622;51.998;10.440;2023-07-31T11:56:40;25.20;90.00
32107;DHT22;18622;51.998;10.440;2023-07-31T11:59:08;25.00;90.40
32107;DHT22;18622;51.998;10.440;2023-07-31T12:01:36;24.90;90.70
32107;DHT22;18622;51.998;10.440;2023-07-31T12:04:04;24.90;90.70
32107;DHT22;18622;51.998;10.440;2023-07-31T12:06:35;24.80;90.60
32107;DHT22;18622;51.998;10.440;2023-07-31T12:09:06;24.80;90.70
32107;DHT22;18622;51.998;10.440;2023-07-31T12:11:46;24.80;91.10
32107;DHT22;18622;51.998;10.440;2023-07-31T12:14:28;25.40;90.40
32107;DHT22;18622;51.998;10.440;2023-07-31T12:17:03;25.60;88.70
32107;DHT22;18622;51.998;10.440;2023-07-31T12:19:30;25.30;89.30
32107;DHT22;18622;51.998;10.440;2023-07-31T12:22:01;25.20;90.00
32107;DHT22;18622;51.998;10.440;2023-07-31T12:24:29;25.30;90.20
32107;DHT22;18622;51.998;10.440;2023-07-31T12:26:57;25.40;89.90
32107;DHT22;18622;51.998;10.440;2023-07-31T12:29:35;25.20;89.60
32107;DHT22;18622;51.998;10.440;2023-07-31T12:31:55;25.00;90.30
32107;DHT22;18622;51.998;10.440;2023-07-31T12:34:23;25.00;90.10
32107;DHT22;18622;51.998;10.440;2023-07-31T12:36:53;24.80;90.30
32107;DHT22;18622;51.998;10.440;2023-07-31T12:39:20;24.60;90.70
32107;DHT22;18622;51.998;10.440;2023-07-31T12:41:47;24.40;91.10
32107;DHT22;18622;51.998;10.440;2023-07-31T12:44:15;24.20;91.10
32107;DHT22;18622;51.998;10.440;2023-07-31T12:46:43;24.20;91.40
32107;DHT22;18622;51.998;10.440;2023-07-31T12:49:11;24.40;91.80
32107;DHT22;18622;51.998;10.440;2023-07-31T12:51:39;24.90;91.00
32107;DHT22;18622;51.998;10.440;2023-07-31T12:54:06;25.20;90.10
32107;DHT22;18622;51.998;10.440;2023-07-31T12:56:34;25.60;90.00
32107;DHT22;18622;51.998;10.440;2023-07-31T12:59:02;26.60;88.30
32107;DHT22;18622;51.998;10.440;2023-07-31T13:01:30;27.50;84.50
32107;DHT22;18622;51.998;10.440;2023-07-31T13:03:58;27.60;82.50
32107;DHT22;18622;51.998;10.440;2023-07-31T13:06:26;27.20;83.30
32107;DHT22;18622;51.998;10.440;2023-07-31T13:08:53;26.60;83.90
32107;DHT22;18622;51.998;10.440;2023-07-31T13:11:21;26.30;84.80
32107;DHT22;18622;51.998;10.440;2023-07-31T13:13:49;25.80;85.30
32107;DHT22;18622;51.998;10.440;2023-07-31T13:16:17;25.50;86.80
32107;DHT22;18622;51.998;10.440;2023-07-31T13:18:45;25.30;87.60
32107;DHT22;18622;51.998;10.440;2023-07-31T13:21:12;25.20;89.20
32107;DHT22;18622;51.998;10.440;2023-07-31T13:23:40;25.10;88.80
32107;DHT22;18622;51.998;10.440;2023-07-31T13:26:08;25.00;89.30
32107;DHT22;18622;51.998;10.440;2023-07-31T13:28:36;25.00;90.20
32107;DHT22;18622;51.998;10.440;2023-07-31T13:31:04;24.80;90.30
32107;DHT22;18622;51.998;10.440;2023-07-31T13:33:31;24.50;90.60
32107;DHT22;18622;51.998;10.440;2023-07-31T13:35:59;23.90;92.10
32107;DHT22;18622;51.998;10.440;2023-07-31T13:38:27;23.20;93.20
32107;DHT22;18622;51.998;10.440;2023-07-31T13:40:55;22.80;94.40
32107;DHT22;18622;51.998;10.440;2023-07-31T13:43:23;22.30;95.80
32107;DHT22;18622;51.998;10.440;2023-07-31T13:45:51;21.90;96.90
32107;DHT22;18622;51.998;10.440;2023-07-31T13:48:18;21.80;97.50
32107;DHT22;18622;51.998;10.440;2023-07-31T13:50:46;21.80;97.90
32107;DHT22;18622;51.998;10.440;2023-07-31T13:53:14;21.50;98.70
32107;DHT22;18622;51.998;10.440;2023-07-31T13:55:42;21.40;99.90
32107;DHT22;18622;51.998;10.440;2023-07-31T13:58:11;21.30;99.90
32107;DHT22;18622;51.998;10.440;2023-07-31T14:00:39;21.40;99.90
32107;DHT22;18622;51.998;10.440;2023-07-31T14:03:07;21.50;99.90
32107;DHT22;18622;51.998;10.440;2023-07-31T14:05:35;21.60;99.90
32107;DHT22;18622;51.998;10.440;2023-07-31T14:08:03;21.80;99.90
32107;DHT22;18622;51.998;10.440;2023-07-31T14:10:30;21.50;99.90
32107;DHT22;18622;51.998;10.440;2023-07-31T14:12:58;21.50;99.90
32107;DHT22;18622;51.998;10.440;2023-07-31T14:15:26;21.80;99.90
32107;DHT22;18622;51.998;10.440;2023-07-31T14:17:54;21.60;99.90
32107;DHT22;18622;51.998;10.440;2023-07-31T14:20:22;21.20;99.90
32107;DHT22;18622;51.998;10.440;2023-07-31T14:22:49;20.80;99.90
32107;DHT22;18622;51.998;10.440;2023-07-31T14:25:17;20.60;99.90
32107;DHT22;18622;51.998;10.440;2023-07-31T14:27:45;20.40;99.90
32107;DHT22;18622;51.998;10.440;2023-07-31T14:30:13;20.40;99.90
32107;DHT22;18622;51.998;10.440;2023-07-31T14:32:41;20.40;99.90
32107;DHT22;18622;51.998;10.440;2023-07-31T14:35:09;20.40;99.90
32107;DHT22;18622;51.998;10.440;2023-07-31T14:37:38;20.40;99.90
32107;DHT22;18622;51.998;10.440;2023-07-31T14:40:07;20.50;99.90
32107;DHT22;18622;51.998;10.440;2023-07-31T14:42:35;20.50;99.90
32107;DHT22;18622;51.998;10.440;2023-07-31T14:45:04;20.60;99.90
32107;DHT22;18622;51.998;10.440;2023-07-31T14:47:31;20.70;99.90
32107;DHT22;18622;51.998;10.440;2023-07-31T14:49:59;20.90;99.90
32107;DHT22;18622;51.998;10.440;2023-07-31T14:52:27;21.30;99.90
32107;DHT22;18622;51.998;10.440;2023-07-31T14:54:55;22.00;99.90
32107;DHT22;18622;51.998;10.440;2023-07-31T14:57:23;22.70;99.90
32107;DHT22;18622;51.998;10.440;2023-07-31T14:59:51;23.30;99.90
32107;DHT22;18622;51.998;10.440;2023-07-31T15:02:18;23.60;98.50
32107;DHT22;18622;51.998;10.440;2023-07-31T15:04:46;23.50;98.30
32107;DHT22;18622;51.998;10.440;2023-07-31T15:07:14;23.30;98.10
32107;DHT22;18622;51.998;10.440;2023-07-31T15:09:42;23.00;98.30
32107;DHT22;18622;51.998;10.440;2023-07-31T15:12:10;22.70;98.40
32107;DHT22;18622;51.998;10.440;2023-07-31T15:14:37;22.40;98.60
32107;DHT22;18622;51.998;10.440;2023-07-31T15:17:05;22.10;98.80
32107;DHT22;18622;51.998;10.440;2023-07-31T15:19:33;21.90;99.50
32107;DHT22;18622;51.998;10.440;2023-07-31T15:22:03;22.00;99.60
32107;DHT22;18622;51.998;10.440;2023-07-31T15:24:31;22.30;99.70
32107;DHT22;18622;51.998;10.440;2023-07-31T15:26:59;22.40;99.30
32107;DHT22;18622;51.998;10.440;2023-07-31T15:29:29;22.50;99.00
32107;DHT22;18622;51.998;10.440;2023-07-31T15:31:57;22.30;99.00
32107;DHT22;18622;51.998;10.440;2023-07-31T15:34:25;22.20;99.30
32107;DHT22;18622;51.998;10.440;2023-07-31T15:36:53;22.10;99.20
32107;DHT22;18622;51.998;10.440;2023-07-31T15:39:21;22.00;99.60
32107;DHT22;18622;51.998;10.440;2023-07-31T15:41:49;22.00;99.40
32107;DHT22;18622;51.998;10.440;2023-07-31T15:44:17;22.00;99.60
32107;DHT22;18622;51.998;10.440;2023-07-31T15:46:44;21.90;99.60
32107;DHT22;18622;51.998;10.440;2023-07-31T15:49:12;21.80;99.80
32107;DHT22;18622;51.998;10.440;2023-07-31T15:51:40;21.70;99.90
32107;DHT22;18622;51.998;10.440;2023-07-31T15:54:08;21.70;99.90
32107;DHT22;18622;51.998;10.440;2023-07-31T15:56:36;21.80;99.90
32107;DHT22;18622;51.998;10.440;2023-07-31T15:59:03;21.80;99.90
32107;DHT22;18622;51.998;10.440;2023-07-31T16:01:31;21.90;99.90
32107;DHT22;18622;51.998;10.440;2023-07-31T16:03:59;22.00;99.90
32107;DHT22;18622;51.998;10.440;2023-07-31T16:06:27;22.20;99.90
32107;DHT22;18622;51.998;10.440;2023-07-31T16:08:55;22.20;99.90
32107;DHT22;18622;51.998;10.440;2023-07-31T16:11:23;22.30;99.90
32107;DHT22;18622;51.998;10.440;2023-07-31T16:13:51;22.30;99.70
32107;DHT22;18622;51.998;10.440;2023-07-31T16:16:19;22.20;99.70
32107;DHT22;18622;51.998;10.440;2023-07-31T16:18:47;22.00;99.70
32107;DHT22;18622;51.998;10.440;2023-07-31T16:21:15;21.90;99.90
32107;DHT22;18622;51.998;10.440;2023-07-31T16:23:43;21.70;99.90
32107;DHT22;18622;51.998;10.440;2023-07-31T16:26:11;21.60;99.90
32107;DHT22;18622;51.998;10.440;2023-07-31T16:28:38;21.40;99.90
32107;DHT22;18622;51.998;10.440;2023-07-31T16:31:06;21.20;99.90
32107;DHT22;18622;51.998;10.440;2023-07-31T16:33:34;20.90;99.90
32107;DHT22;18622;51.998;10.440;2023-07-31T16:36:02;20.60;99.90
32107;DHT22;18622;51.998;10.440;2023-07-31T16:38:30;20.60;99.90
32107;DHT22;18622;51.998;10.440;2023-07-31T16:40:58;20.60;99.90
32107;DHT22;18622;51.998;10.440;2023-07-31T16:43:26;20.60;99.90
32107;DHT22;18622;51.998;10.440;2023-07-31T16:45:57;20.70;99.90
32107;DHT22;18622;51.998;10.440;2023-07-31T16:48:25;20.70;99.90
32107;DHT22;18622;51.998;10.440;2023-07-31T16:50:53;20.70;99.90
32107;DHT22;18622;51.998;10.440;2023-07-31T16:53:21;20.70;99.90
32107;DHT22;18622;51.998;10.440;2023-07-31T16:55:49;20.60;99.90
32107;DHT22;18622;51.998;10.440;2023-07-31T16:58:17;20.60;99.90
32107;DHT22;18622;51.998;10.440;2023-07-31T17:00:44;20.60;99.90
32107;DHT22;18622;51.998;10.440;2023-07-31T17:03:12;20.60;99.90
32107;DHT22;18622;51.998;10.440;2023-07-31T17:05:40;20.60;99.90
32107;DHT22;18622;51.998;10.440;2023-07-31T17:08:08;20.60;99.90
32107;DHT22;18622;51.998;10.440;2023-07-31T17:10:36;20.60;99.90
32107;DHT22;18622;51.998;10.440;2023-07-31T17:13:03;20.60;99.90
32107;DHT22;18622;51.998;10.440;2023-07-31T17:15:31;20.60;99.90
32107;DHT22;18622;51.998;10.440;2023-07-31T17:17:59;20.60;99.90
32107;DHT22;18622;51.998;10.440;2023-07-31T17:20:27;20.60;99.90
32107;DHT22;18622;51.998;10.440;2023-07-31T17:22:55;20.70;99.90
32107;DHT22;18622;51.998;10.440;2023-07-31T17:25:23;20.60;99.90
32107;DHT22;18622;51.998;10.440;2023-07-31T17:27:50;20.70;99.90
32107;DHT22;18622;51.998;10.440;2023-07-31T17:30:18;20.60;99.90
32107;DHT22;18622;51.998;10.440;2023-07-31T17:32:46;20.60;99.90
32107;DHT22;18622;51.998;10.440;2023-07-31T17:35:14;20.60;99.90
32107;DHT22;18622;51.998;10.440;2023-07-31T17:37:42;20.50;99.90
32107;DHT22;18622;51.998;10.440;2023-07-31T17:40:10;20.50;99.90
32107;DHT22;18622;51.998;10.440;2023-07-31T17:42:38;20.50;99.90
32107;DHT22;18622;51.998;10.440;2023-07-31T17:45:06;20.50;99.90
32107;DHT22;18622;51.998;10.440;2023-07-31T17:47:33;20.50;99.90
32107;DHT22;18622;51.998;10.440;2023-07-31T17:50:01;20.40;99.90
32107;DHT22;18622;51.998;10.440;2023-07-31T17:52:29;20.40;99.90
32107;DHT22;18622;51.998;10.440;2023-07-31T17:54:57;20.40;99.90
32107;DHT22;18622;51.998;10.440;2023-07-31T17:57:25;20.40;99.90
32107;DHT22;18622;51.998;10.440;2023-07-31T17:59:53;20.40;99.90
32107;DHT22;18622;51.998;10.440;2023-07-31T18:02:21;20.40;99.90
32107;DHT22;18622;51.998;10.440;2023-07-31T18:04:49;20.40;99.90
32107;DHT22;18622;51.998;10.440;2023-07-31T18:07:16;20.40;99.90
32107;DHT22;18622;51.998;10.440;2023-07-31T18:09:44;20.40;99.90
32107;DHT22;18622;51.998;10.440;2023-07-31T18:12:12;20.40;99.90
32107;DHT22;18622;51.998;10.440;2023-07-31T18:14:40;20.40;99.90
32107;DHT22;18622;51.998;10.440;2023-07-31T18:17:08;20.40;99.90
32107;DHT22;18622;51.998;10.440;2023-07-31T18:19:35;20.40;99.90
32107;DHT22;18622;51.998;10.440;2023-07-31T18:22:03;20.40;99.90
32107;DHT22;18622;51.998;10.440;2023-07-31T18:24:31;20.40;99.90
32107;DHT22;18622;51.998;10.440;2023-07-31T18:26:59;20.40;99.90
32107;DHT22;18622;51.998;10.440;2023-07-31T18:29:27;20.40;99.90
32107;DHT22;18622;51.998;10.440;2023-07-31T18:31:55;20.50;99.90
32107;DHT22;18622;51.998;10.440;2023-07-31T18:34:22;20.50;99.90
32107;DHT22;18622;51.998;10.440;2023-07-31T18:36:50;20.50;99.90
32107;DHT22;18622;51.998;10.440;2023-07-31T18:39:18;20.50;99.90
32107;DHT22;18622;51.998;10.440;2023-07-31T18:41:46;20.50;99.90
32107;DHT22;18622;51.998;10.440;2023-07-31T18:44:14;20.50;99.90
32107;DHT22;18622;51.998;10.440;2023-07-31T18:46:41;20.50;99.90
32107;DHT22;18622;51.998;10.440;2023-07-31T18:49:09;20.50;99.90
32107;DHT22;18622;51.998;10.440;2023-07-31T18:51:37;20.50;99.90
32107;DHT22;18622;51.998;10.440;2023-07-31T18:54:05;20.50;99.90